Terminal Aerodrome Forecast
Issued by NWS

Home | Current Version | Previous Version | Text Only | Print | Product List | Glossary On
Versions: 1 2 3 4 5 6 7 8 9 10 11 12 13 14 15 16 17 18 19 20 21 22 23 24 25 26 27 28 29 30 31 32 33 34 35 36 37 38 39 40 41 42 43
000
FTUS43 KDMX 301742
TAFOTM
TAF
KOTM 301742Z 3018/3118 04012G20KT 4SM BR VCSH OVC006
     FM301900 03012KT 2SM BR VCSH OVC003
     FM302200 01012KT 2SM BR VCSH OVC007
     FM310300 35013G19KT 4SM BR OVC007
     FM311600 35011KT P6SM BKN010=

USA.gov is the U.S. government's official web portal to all federal, state and local government web resources and services.